sensor_id;sensor_type;location;lat;lon;timestamp;temperature;humidity
18392;DHT22;9322;50.932;5.318;2023-03-23T00:00:05;12.90;1.40
18392;DHT22;9322;50.932;5.318;2023-03-23T00:02:32;12.90;1.40
18392;DHT22;9322;50.932;5.318;2023-03-23T00:05:01;12.80;1.40
18392;DHT22;9322;50.932;5.318;2023-03-23T00:07:29;12.90;1.40
18392;DHT22;9322;50.932;5.318;2023-03-23T00:09:55;12.90;1.40
18392;DHT22;9322;50.932;5.318;2023-03-23T00:12:26;12.90;1.40
18392;DHT22;9322;50.932;5.318;2023-03-23T00:15:06;12.90;1.40
18392;DHT22;9322;50.932;5.318;2023-03-23T00:17:32;12.90;1.40
18392;DHT22;9322;50.932;5.318;2023-03-23T00:19:59;12.80;1.40
18392;DHT22;9322;50.932;5.318;2023-03-23T00:22:27;13.00;1.40
18392;DHT22;9322;50.932;5.318;2023-03-23T00:24:53;12.80;1.40
18392;DHT22;9322;50.932;5.318;2023-03-23T00:27:20;12.90;1.40
18392;DHT22;9322;50.932;5.318;2023-03-23T00:29:50;13.00;1.40
18392;DHT22;9322;50.932;5.318;2023-03-23T00:32:23;13.00;1.40
18392;DHT22;9322;50.932;5.318;2023-03-23T00:34:55;13.00;1.40
18392;DHT22;9322;50.932;5.318;2023-03-23T00:37:21;13.00;1.40
18392;DHT22;9322;50.932;5.318;2023-03-23T00:39:46;13.10;1.40
18392;DHT22;9322;50.932;5.318;2023-03-23T00:42:14;13.00;1.40
18392;DHT22;9322;50.932;5.318;2023-03-23T00:44:40;13.00;1.40
18392;DHT22;9322;50.932;5.318;2023-03-23T00:47:06;13.00;1.40
18392;DHT22;9322;50.932;5.318;2023-03-23T00:49:34;12.90;1.40
18392;DHT22;9322;50.932;5.318;2023-03-23T00:52:01;13.00;1.40
18392;DHT22;9322;50.932;5.318;2023-03-23T00:54:27;13.00;1.40
18392;DHT22;9322;50.932;5.318;2023-03-23T00:56:53;12.90;1.40
18392;DHT22;9322;50.932;5.318;2023-03-23T00:59:20;12.90;1.40
18392;DHT22;9322;50.932;5.318;2023-03-23T01:01:46;12.90;1.40
18392;DHT22;9322;50.932;5.318;2023-03-23T01:04:12;12.90;1.40
18392;DHT22;9322;50.932;5.318;2023-03-23T01:06:40;12.80;1.40
18392;DHT22;9322;50.932;5.318;2023-03-23T01:09:12;12.80;99.90
18392;DHT22;9322;50.932;5.318;2023-03-23T01:11:43;12.90;99.90
18392;DHT22;9322;50.932;5.318;2023-03-23T01:14:09;12.90;99.90
18392;DHT22;9322;50.932;5.318;2023-03-23T01:16:35;12.90;99.90
18392;DHT22;9322;50.932;5.318;2023-03-23T01:19:01;12.90;99.90
18392;DHT22;9322;50.932;5.318;2023-03-23T01:21:27;12.80;99.90
18392;DHT22;9322;50.932;5.318;2023-03-23T01:23:52;12.80;99.90
18392;DHT22;9322;50.932;5.318;2023-03-23T01:26:22;12.70;99.90
18392;DHT22;9322;50.932;5.318;2023-03-23T01:28:48;12.80;99.90
18392;DHT22;9322;50.932;5.318;2023-03-23T01:31:19;12.70;99.90
18392;DHT22;9322;50.932;5.318;2023-03-23T01:33:46;12.80;99.90
18392;DHT22;9322;50.932;5.318;2023-03-23T01:36:18;12.80;99.90
18392;DHT22;9322;50.932;5.318;2023-03-23T01:38:46;12.80;99.90
18392;DHT22;9322;50.932;5.318;2023-03-23T01:41:13;12.80;99.90
18392;DHT22;9322;50.932;5.318;2023-03-23T01:46:21;12.70;99.90
18392;DHT22;9322;50.932;5.318;2023-03-23T01:48:49;12.70;99.90
18392;DHT22;9322;50.932;5.318;2023-03-23T01:51:17;12.70;99.90
18392;DHT22;9322;50.932;5.318;2023-03-23T01:53:50;12.80;99.90
18392;DHT22;9322;50.932;5.318;2023-03-23T01:56:20;12.70;99.90
18392;DHT22;9322;50.932;5.318;2023-03-23T01:58:51;12.80;99.90
18392;DHT22;9322;50.932;5.318;2023-03-23T02:01:17;12.80;99.90
18392;DHT22;9322;50.932;5.318;2023-03-23T02:03:44;12.70;99.90
18392;DHT22;9322;50.932;5.318;2023-03-23T02:06:11;12.60;99.90
18392;DHT22;9322;50.932;5.318;2023-03-23T02:08:38;12.60;99.90
18392;DHT22;9322;50.932;5.318;2023-03-23T02:11:18;12.60;99.90
18392;DHT22;9322;50.932;5.318;2023-03-23T02:13:44;12.70;99.90
18392;DHT22;9322;50.932;5.318;2023-03-23T02:27:02;12.60;99.90
18392;DHT22;9322;50.932;5.318;2023-03-23T02:32:31;12.60;99.90
18392;DHT22;9322;50.932;5.318;2023-03-23T02:35:04;12.70;99.90
18392;DHT22;9322;50.932;5.318;2023-03-23T02:37:36;12.80;99.90
18392;DHT22;9322;50.932;5.318;2023-03-23T02:40:17;12.90;99.90
18392;DHT22;9322;50.932;5.318;2023-03-23T02:42:46;12.90;99.90
18392;DHT22;9322;50.932;5.318;2023-03-23T02:45:14;12.80;99.90
18392;DHT22;9322;50.932;5.318;2023-03-23T02:47:41;12.80;99.90
18392;DHT22;9322;50.932;5.318;2023-03-23T02:50:10;12.70;99.90
18392;DHT22;9322;50.932;5.318;2023-03-23T02:52:38;12.80;99.90
18392;DHT22;9322;50.932;5.318;2023-03-23T02:55:06;12.80;99.90
18392;DHT22;9322;50.932;5.318;2023-03-23T02:57:32;12.90;99.90
18392;DHT22;9322;50.932;5.318;2023-03-23T02:59:58;12.90;1.40
18392;DHT22;9322;50.932;5.318;2023-03-23T03:02:31;13.00;1.40
18392;DHT22;9322;50.932;5.318;2023-03-23T03:18:32;13.10;1.40
18392;DHT22;9322;50.932;5.318;2023-03-23T03:21:07;13.00;1.40
18392;DHT22;9322;50.932;5.318;2023-03-23T03:23:37;13.10;1.40
18392;DHT22;9322;50.932;5.318;2023-03-23T03:26:04;13.10;1.40
18392;DHT22;9322;50.932;5.318;2023-03-23T03:28:32;13.10;1.40
18392;DHT22;9322;50.932;5.318;2023-03-23T03:30:58;13.20;1.40
18392;DHT22;9322;50.932;5.318;2023-03-23T03:33:27;13.20;1.40
18392;DHT22;9322;50.932;5.318;2023-03-23T03:35:58;13.20;1.40
18392;DHT22;9322;50.932;5.318;2023-03-23T03:38:25;13.30;1.40
18392;DHT22;9322;50.932;5.318;2023-03-23T03:40:51;13.20;1.40
18392;DHT22;9322;50.932;5.318;2023-03-23T03:43:17;13.10;1.40
18392;DHT22;9322;50.932;5.318;2023-03-23T03:45:43;13.00;1.40
18392;DHT22;9322;50.932;5.318;2023-03-23T03:48:09;13.00;1.40
18392;DHT22;9322;50.932;5.318;2023-03-23T03:50:35;13.10;1.40
18392;DHT22;9322;50.932;5.318;2023-03-23T03:53:01;13.10;1.40
18392;DHT22;9322;50.932;5.318;2023-03-23T03:55:27;13.20;1.40
18392;DHT22;9322;50.932;5.318;2023-03-23T03:57:54;13.20;1.40
18392;DHT22;9322;50.932;5.318;2023-03-23T04:00:20;13.00;1.40
18392;DHT22;9322;50.932;5.318;2023-03-23T04:02:49;13.00;1.40
18392;DHT22;9322;50.932;5.318;2023-03-23T04:05:20;13.00;1.40
18392;DHT22;9322;50.932;5.318;2023-03-23T04:07:46;13.00;1.40
18392;DHT22;9322;50.932;5.318;2023-03-23T04:10:15;13.00;1.40
18392;DHT22;9322;50.932;5.318;2023-03-23T04:12:41;13.10;1.40
18392;DHT22;9322;50.932;5.318;2023-03-23T04:15:07;13.00;1.40
18392;DHT22;9322;50.932;5.318;2023-03-23T04:17:34;13.00;1.40
18392;DHT22;9322;50.932;5.318;2023-03-23T04:19:59;13.10;1.40
18392;DHT22;9322;50.932;5.318;2023-03-23T04:22:26;12.90;1.40
18392;DHT22;9322;50.932;5.318;2023-03-23T04:24:59;13.00;1.40
18392;DHT22;9322;50.932;5.318;2023-03-23T04:27:27;13.00;1.40
18392;DHT22;9322;50.932;5.318;2023-03-23T04:30:02;13.00;1.40
18392;DHT22;9322;50.932;5.318;2023-03-23T04:32:28;13.00;1.40
18392;DHT22;9322;50.932;5.318;2023-03-23T04:34:58;13.00;1.40
18392;DHT22;9322;50.932;5.318;2023-03-23T04:37:27;13.00;1.40
18392;DHT22;9322;50.932;5.318;2023-03-23T04:39:59;12.90;1.40
18392;DHT22;9322;50.932;5.318;2023-03-23T04:42:30;13.00;1.40
18392;DHT22;9322;50.932;5.318;2023-03-23T04:44:57;13.00;1.40
18392;DHT22;9322;50.932;5.318;2023-03-23T04:47:24;13.10;1.40
18392;DHT22;9322;50.932;5.318;2023-03-23T04:49:51;12.90;1.40
18392;DHT22;9322;50.932;5.318;2023-03-23T04:52:17;12.90;1.40
18392;DHT22;9322;50.932;5.318;2023-03-23T04:54:43;13.00;1.40
18392;DHT22;9322;50.932;5.318;2023-03-23T04:57:09;12.90;1.40
18392;DHT22;9322;50.932;5.318;2023-03-23T04:59:35;13.00;1.40
18392;DHT22;9322;50.932;5.318;2023-03-23T05:02:01;13.00;1.40
18392;DHT22;9322;50.932;5.318;2023-03-23T05:04:26;13.00;1.40
18392;DHT22;9322;50.932;5.318;2023-03-23T05:06:52;12.90;1.40
18392;DHT22;9322;50.932;5.318;2023-03-23T05:09:18;12.80;1.40
18392;DHT22;9322;50.932;5.318;2023-03-23T05:11:45;12.80;1.40
18392;DHT22;9322;50.932;5.318;2023-03-23T05:14:11;12.80;1.40
18392;DHT22;9322;50.932;5.318;2023-03-23T05:16:37;12.90;1.40
18392;DHT22;9322;50.932;5.318;2023-03-23T05:19:03;12.60;1.40
18392;DHT22;9322;50.932;5.318;2023-03-23T05:21:30;12.70;1.40
18392;DHT22;9322;50.932;5.318;2023-03-23T05:23:56;12.80;1.40
18392;DHT22;9322;50.932;5.318;2023-03-23T05:26:26;12.90;1.40
18392;DHT22;9322;50.932;5.318;2023-03-23T05:28:54;12.90;1.40
18392;DHT22;9322;50.932;5.318;2023-03-23T05:31:22;13.00;1.40
18392;DHT22;9322;50.932;5.318;2023-03-23T05:33:48;12.90;1.40
18392;DHT22;9322;50.932;5.318;2023-03-23T05:36:14;12.80;1.40
18392;DHT22;9322;50.932;5.318;2023-03-23T05:38:40;12.70;1.40
18392;DHT22;9322;50.932;5.318;2023-03-23T05:41:11;12.80;1.40
18392;DHT22;9322;50.932;5.318;2023-03-23T05:43:36;12.70;1.40
18392;DHT22;9322;50.932;5.318;2023-03-23T05:46:02;12.50;1.40
18392;DHT22;9322;50.932;5.318;2023-03-23T05:48:28;12.40;1.40
18392;DHT22;9322;50.932;5.318;2023-03-23T05:50:54;12.50;1.40
18392;DHT22;9322;50.932;5.318;2023-03-23T05:53:21;12.60;1.40
18392;DHT22;9322;50.932;5.318;2023-03-23T05:55:47;12.50;1.40
18392;DHT22;9322;50.932;5.318;2023-03-23T05:58:12;12.70;1.40
18392;DHT22;9322;50.932;5.318;2023-03-23T06:00:38;12.60;1.40
18392;DHT22;9322;50.932;5.318;2023-03-23T06:03:04;12.70;1.40
18392;DHT22;9322;50.932;5.318;2023-03-23T06:05:31;12.70;1.40
18392;DHT22;9322;50.932;5.318;2023-03-23T06:07:58;12.50;1.40
18392;DHT22;9322;50.932;5.318;2023-03-23T06:10:24;12.50;1.40
18392;DHT22;9322;50.932;5.318;2023-03-23T06:12:51;12.50;1.40
18392;DHT22;9322;50.932;5.318;2023-03-23T06:15:18;12.60;1.40
18392;DHT22;9322;50.932;5.318;2023-03-23T06:17:44;12.60;1.40
18392;DHT22;9322;50.932;5.318;2023-03-23T06:20:10;12.80;1.40
18392;DHT22;9322;50.932;5.318;2023-03-23T06:22:38;12.80;1.40
18392;DHT22;9322;50.932;5.318;2023-03-23T06:25:08;12.70;1.40
18392;DHT22;9322;50.932;5.318;2023-03-23T06:27:34;12.80;1.40
18392;DHT22;9322;50.932;5.318;2023-03-23T06:30:01;12.70;1.40
18392;DHT22;9322;50.932;5.318;2023-03-23T06:32:29;12.70;1.40
18392;DHT22;9322;50.932;5.318;2023-03-23T06:34:55;12.70;1.40
18392;DHT22;9322;50.932;5.318;2023-03-23T06:37:22;12.80;1.40
18392;DHT22;9322;50.932;5.318;2023-03-23T06:39:49;12.70;1.40
18392;DHT22;9322;50.932;5.318;2023-03-23T06:42:15;12.80;1.40
18392;DHT22;9322;50.932;5.318;2023-03-23T06:44:41;12.90;1.40
18392;DHT22;9322;50.932;5.318;2023-03-23T06:47:06;12.70;1.40
18392;DHT22;9322;50.932;5.318;2023-03-23T06:49:33;12.70;1.40
18392;DHT22;9322;50.932;5.318;2023-03-23T06:51:59;12.80;1.40
18392;DHT22;9322;50.932;5.318;2023-03-23T06:54:27;12.80;1.40
18392;DHT22;9322;50.932;5.318;2023-03-23T06:56:53;12.80;1.40
18392;DHT22;9322;50.932;5.318;2023-03-23T06:59:19;12.90;1.40
18392;DHT22;9322;50.932;5.318;2023-03-23T07:01:44;13.00;1.40
18392;DHT22;9322;50.932;5.318;2023-03-23T07:04:12;12.90;1.40
18392;DHT22;9322;50.932;5.318;2023-03-23T07:06:37;12.80;1.40
18392;DHT22;9322;50.932;5.318;2023-03-23T07:09:03;13.00;1.40
18392;DHT22;9322;50.932;5.318;2023-03-23T07:11:30;13.10;1.40
18392;DHT22;9322;50.932;5.318;2023-03-23T07:13:57;13.10;1.40
18392;DHT22;9322;50.932;5.318;2023-03-23T07:16:23;13.00;1.40
18392;DHT22;9322;50.932;5.318;2023-03-23T07:18:48;13.10;1.40
18392;DHT22;9322;50.932;5.318;2023-03-23T07:21:14;13.20;1.40
18392;DHT22;9322;50.932;5.318;2023-03-23T07:23:41;13.20;1.40
18392;DHT22;9322;50.932;5.318;2023-03-23T07:26:07;13.30;1.40
18392;DHT22;9322;50.932;5.318;2023-03-23T07:28:33;13.20;1.40
18392;DHT22;9322;50.932;5.318;2023-03-23T07:30:58;13.20;1.40
18392;DHT22;9322;50.932;5.318;2023-03-23T07:33:24;13.30;1.40
18392;DHT22;9322;50.932;5.318;2023-03-23T07:35:50;13.40;1.40
18392;DHT22;9322;50.932;5.318;2023-03-23T07:38:15;13.40;1.40
18392;DHT22;9322;50.932;5.318;2023-03-23T07:40:41;13.50;1.40
18392;DHT22;9322;50.932;5.318;2023-03-23T07:43:07;13.40;1.40
18392;DHT22;9322;50.932;5.318;2023-03-23T07:45:33;13.40;1.40
18392;DHT22;9322;50.932;5.318;2023-03-23T07:47:59;13.30;1.40
18392;DHT22;9322;50.932;5.318;2023-03-23T07:50:25;13.20;1.40
18392;DHT22;9322;50.932;5.318;2023-03-23T07:52:54;13.40;1.40
18392;DHT22;9322;50.932;5.318;2023-03-23T07:55:20;13.50;1.40
18392;DHT22;9322;50.932;5.318;2023-03-23T07:57:47;13.20;1.40
18392;DHT22;9322;50.932;5.318;2023-03-23T08:00:15;13.20;1.40
18392;DHT22;9322;50.932;5.318;2023-03-23T08:02:44;13.40;1.40
18392;DHT22;9322;50.932;5.318;2023-03-23T08:05:10;13.40;1.40
18392;DHT22;9322;50.932;5.318;2023-03-23T08:07:38;13.40;1.40
18392;DHT22;9322;50.932;5.318;2023-03-23T08:10:05;13.40;1.40
18392;DHT22;9322;50.932;5.318;2023-03-23T08:12:30;13.40;1.40
18392;DHT22;9322;50.932;5.318;2023-03-23T08:14:56;13.30;1.40
18392;DHT22;9322;50.932;5.318;2023-03-23T08:17:22;13.40;1.40
18392;DHT22;9322;50.932;5.318;2023-03-23T08:19:48;13.40;1.40
18392;DHT22;9322;50.932;5.318;2023-03-23T08:22:18;13.40;1.40
18392;DHT22;9322;50.932;5.318;2023-03-23T08:24:43;13.30;1.40
18392;DHT22;9322;50.932;5.318;2023-03-23T08:27:09;13.40;1.40
18392;DHT22;9322;50.932;5.318;2023-03-23T08:29:35;13.60;1.40
18392;DHT22;9322;50.932;5.318;2023-03-23T08:32:00;13.80;1.40
18392;DHT22;9322;50.932;5.318;2023-03-23T08:34:28;13.50;1.40
18392;DHT22;9322;50.932;5.318;2023-03-23T08:36:54;13.20;1.40
18392;DHT22;9322;50.932;5.318;2023-03-23T08:39:20;12.70;1.40
18392;DHT22;9322;50.932;5.318;2023-03-23T08:41:48;12.50;1.40
18392;DHT22;9322;50.932;5.318;2023-03-23T08:44:14;12.00;99.90
18392;DHT22;9322;50.932;5.318;2023-03-23T08:46:41;12.00;99.90
18392;DHT22;9322;50.932;5.318;2023-03-23T08:49:07;11.90;99.90
18392;DHT22;9322;50.932;5.318;2023-03-23T08:51:33;11.60;99.90
18392;DHT22;9322;50.932;5.318;2023-03-23T08:53:59;11.20;99.90
18392;DHT22;9322;50.932;5.318;2023-03-23T08:56:24;11.20;99.90
18392;DHT22;9322;50.932;5.318;2023-03-23T08:58:50;11.10;99.90
18392;DHT22;9322;50.932;5.318;2023-03-23T09:01:16;11.10;99.90
18392;DHT22;9322;50.932;5.318;2023-03-23T09:03:42;11.40;99.90
18392;DHT22;9322;50.932;5.318;2023-03-23T09:06:08;11.30;99.90
18392;DHT22;9322;50.932;5.318;2023-03-23T09:08:36;11.30;99.90
18392;DHT22;9322;50.932;5.318;2023-03-23T09:11:04;11.30;99.90
18392;DHT22;9322;50.932;5.318;2023-03-23T09:13:30;11.30;99.90
18392;DHT22;9322;50.932;5.318;2023-03-23T09:15:56;11.20;99.90
18392;DHT22;9322;50.932;5.318;2023-03-23T09:18:23;11.40;99.90
18392;DHT22;9322;50.932;5.318;2023-03-23T09:20:52;11.40;99.90
18392;DHT22;9322;50.932;5.318;2023-03-23T09:23:18;11.60;99.90
18392;DHT22;9322;50.932;5.318;2023-03-23T09:25:46;11.70;99.90
18392;DHT22;9322;50.932;5.318;2023-03-23T09:28:12;12.00;99.90
18392;DHT22;9322;50.932;5.318;2023-03-23T09:30:39;12.10;99.90
18392;DHT22;9322;50.932;5.318;2023-03-23T09:33:06;12.30;99.90
18392;DHT22;9322;50.932;5.318;2023-03-23T09:35:34;12.60;99.90
18392;DHT22;9322;50.932;5.318;2023-03-23T09:38:01;12.70;99.90
18392;DHT22;9322;50.932;5.318;2023-03-23T09:48:26;12.70;99.90
18392;DHT22;9322;50.932;5.318;2023-03-23T09:53:45;12.40;99.90
18392;DHT22;9322;50.932;5.318;2023-03-23T09:56:15;12.40;99.90
18392;DHT22;9322;50.932;5.318;2023-03-23T09:59:01;12.40;99.90
18392;DHT22;9322;50.932;5.318;2023-03-23T10:01:34;12.50;99.90
18392;DHT22;9322;50.932;5.318;2023-03-23T10:04:10;12.50;99.90
18392;DHT22;9322;50.932;5.318;2023-03-23T10:06:38;12.70;99.90
18392;DHT22;9322;50.932;5.318;2023-03-23T10:09:05;12.90;99.90
18392;DHT22;9322;50.932;5.318;2023-03-23T10:14:41;13.00;99.90
18392;DHT22;9322;50.932;5.318;2023-03-23T10:17:15;12.90;1.40
18392;DHT22;9322;50.932;5.318;2023-03-23T10:25:30;12.10;99.90
18392;DHT22;9322;50.932;5.318;2023-03-23T10:28:18;12.30;99.90
18392;DHT22;9322;50.932;5.318;2023-03-23T10:30:56;12.50;99.90
18392;DHT22;9322;50.932;5.318;2023-03-23T10:33:30;12.50;99.90
18392;DHT22;9322;50.932;5.318;2023-03-23T10:38:36;12.60;99.90
18392;DHT22;9322;50.932;5.318;2023-03-23T10:41:10;12.90;99.90
18392;DHT22;9322;50.932;5.318;2023-03-23T10:43:40;12.90;99.90
18392;DHT22;9322;50.932;5.318;2023-03-23T10:48:41;12.90;99.90
18392;DHT22;9322;50.932;5.318;2023-03-23T10:51:12;13.20;99.90
18392;DHT22;9322;50.932;5.318;2023-03-23T10:54:00;13.50;99.90
18392;DHT22;9322;50.932;5.318;2023-03-23T10:56:34;13.10;99.90
18392;DHT22;9322;50.932;5.318;2023-03-23T10:59:10;13.10;99.90
18392;DHT22;9322;50.932;5.318;2023-03-23T11:01:36;13.00;99.90
18392;DHT22;9322;50.932;5.318;2023-03-23T11:04:03;12.90;99.90
18392;DHT22;9322;50.932;5.318;2023-03-23T11:06:32;13.10;99.90
18392;DHT22;9322;50.932;5.318;2023-03-23T11:09:12;12.70;99.90
18392;DHT22;9322;50.932;5.318;2023-03-23T11:11:41;12.80;99.90
18392;DHT22;9322;50.932;5.318;2023-03-23T11:16:54;12.70;99.90
18392;DHT22;9322;50.932;5.318;2023-03-23T11:19:23;12.70;99.90
18392;DHT22;9322;50.932;5.318;2023-03-23T11:21:56;12.80;99.90
18392;DHT22;9322;50.932;5.318;2023-03-23T11:24:27;12.60;99.90
18392;DHT22;9322;50.932;5.318;2023-03-23T11:26:56;12.70;99.90
18392;DHT22;9322;50.932;5.318;2023-03-23T11:29:25;12.70;99.90
18392;DHT22;9322;50.932;5.318;2023-03-23T11:32:11;12.70;99.90
18392;DHT22;9322;50.932;5.318;2023-03-23T11:34:42;12.90;99.90
18392;DHT22;9322;50.932;5.318;2023-03-23T11:42:44;15.30;99.90
18392;DHT22;9322;50.932;5.318;2023-03-23T11:45:34;16.20;1.40
18392;DHT22;9322;50.932;5.318;2023-03-23T11:56:25;15.40;1.40
18392;DHT22;9322;50.932;5.318;2023-03-23T11:58:54;15.10;1.40
18392;DHT22;9322;50.932;5.318;2023-03-23T12:10:05;15.80;1.40
18392;DHT22;9322;50.932;5.318;2023-03-23T12:15:38;16.10;1.40
18392;DHT22;9322;50.932;5.318;2023-03-23T12:20:44;15.40;1.40
18392;DHT22;9322;50.932;5.318;2023-03-23T12:23:24;15.20;1.40
18392;DHT22;9322;50.932;5.318;2023-03-23T12:26:12;15.10;1.40
18392;DHT22;9322;50.932;5.318;2023-03-23T12:34:28;15.20;1.40
18392;DHT22;9322;50.932;5.318;2023-03-23T12:39:58;15.00;1.40
18392;DHT22;9322;50.932;5.318;2023-03-23T12:42:59;14.80;1.40
18392;DHT22;9322;50.932;5.318;2023-03-23T12:48:41;14.50;99.90
18392;DHT22;9322;50.932;5.318;2023-03-23T12:56:40;14.50;1.40
18392;DHT22;9322;50.932;5.318;2023-03-23T13:01:48;14.80;1.40
18392;DHT22;9322;50.932;5.318;2023-03-23T13:04:24;15.10;1.40
18392;DHT22;9322;50.932;5.318;2023-03-23T13:06:51;15.60;1.40
18392;DHT22;9322;50.932;5.318;2023-03-23T13:09:26;15.90;1.40
18392;DHT22;9322;50.932;5.318;2023-03-23T13:11:55;16.10;1.40
18392;DHT22;9322;50.932;5.318;2023-03-23T13:22:31;15.40;1.40
18392;DHT22;9322;50.932;5.318;2023-03-23T13:25:01;15.60;1.40
18392;DHT22;9322;50.932;5.318;2023-03-23T13:27:29;15.40;1.40
18392;DHT22;9322;50.932;5.318;2023-03-23T13:29:57;15.20;1.40
18392;DHT22;9322;50.932;5.318;2023-03-23T13:34:55;15.20;1.40
18392;DHT22;9322;50.932;5.318;2023-03-23T13:37:24;15.10;1.40
18392;DHT22;9322;50.932;5.318;2023-03-23T13:42:48;14.00;99.90
18392;DHT22;9322;50.932;5.318;2023-03-23T13:53:31;13.40;99.90
18392;DHT22;9322;50.932;5.318;2023-03-23T13:59:03;14.10;99.90
18392;DHT22;9322;50.932;5.318;2023-03-23T14:01:35;14.30;99.90
18392;DHT22;9322;50.932;5.318;2023-03-23T14:04:06;14.70;99.90
18392;DHT22;9322;50.932;5.318;2023-03-23T14:06:35;14.80;99.90
18392;DHT22;9322;50.932;5.318;2023-03-23T14:09:31;14.80;99.90
18392;DHT22;9322;50.932;5.318;2023-03-23T14:12:05;14.90;99.90
18392;DHT22;9322;50.932;5.318;2023-03-23T14:14:44;14.80;99.90
18392;DHT22;9322;50.932;5.318;2023-03-23T14:19:54;14.70;99.90
18392;DHT22;9322;50.932;5.318;2023-03-23T14:22:33;14.60;99.90
18392;DHT22;9322;50.932;5.318;2023-03-23T14:25:08;14.90;99.90
18392;DHT22;9322;50.932;5.318;2023-03-23T14:27:35;15.20;1.40
18392;DHT22;9322;50.932;5.318;2023-03-23T14:30:05;15.10;1.40
18392;DHT22;9322;50.932;5.318;2023-03-23T14:32:32;15.30;1.40
18392;DHT22;9322;50.932;5.318;2023-03-23T14:35:00;15.60;1.40
18392;DHT22;9322;50.932;5.318;2023-03-23T14:37:31;15.60;1.40
18392;DHT22;9322;50.932;5.318;2023-03-23T14:39:58;15.60;1.40
18392;DHT22;9322;50.932;5.318;2023-03-23T14:42:32;15.50;1.40
18392;DHT22;9322;50.932;5.318;2023-03-23T14:45:00;15.30;1.40
18392;DHT22;9322;50.932;5.318;2023-03-23T14:47:59;15.20;1.40
18392;DHT22;9322;50.932;5.318;2023-03-23T14:50:29;14.90;1.40
18392;DHT22;9322;50.932;5.318;2023-03-23T14:53:00;14.60;1.40
18392;DHT22;9322;50.932;5.318;2023-03-23T14:55:27;14.70;1.40
18392;DHT22;9322;50.932;5.318;2023-03-23T14:58:05;14.60;1.40
18392;DHT22;9322;50.932;5.318;2023-03-23T15:00:38;14.90;1.40
18392;DHT22;9322;50.932;5.318;2023-03-23T15:03:09;15.10;1.40
18392;DHT22;9322;50.932;5.318;2023-03-23T15:05:40;15.20;1.40
18392;DHT22;9322;50.932;5.318;2023-03-23T15:08:11;15.30;1.40
18392;DHT22;9322;50.932;5.318;2023-03-23T15:10:38;15.30;1.40
18392;DHT22;9322;50.932;5.318;2023-03-23T15:13:05;15.10;1.40
18392;DHT22;9322;50.932;5.318;2023-03-23T15:15:32;14.90;1.40
18392;DHT22;9322;50.932;5.318;2023-03-23T15:17:59;15.00;1.40
18392;DHT22;9322;50.932;5.318;2023-03-23T15:20:32;14.80;1.40
18392;DHT22;9322;50.932;5.318;2023-03-23T15:23:15;14.80;1.40
18392;DHT22;9322;50.932;5.318;2023-03-23T15:25:49;14.80;1.40
18392;DHT22;9322;50.932;5.318;2023-03-23T15:28:28;14.60;1.40
18392;DHT22;9322;50.932;5.318;2023-03-23T15:31:03;14.50;1.40
18392;DHT22;9322;50.932;5.318;2023-03-23T15:33:39;14.50;1.40
18392;DHT22;9322;50.932;5.318;2023-03-23T15:36:08;14.60;1.40
18392;DHT22;9322;50.932;5.318;2023-03-23T15:38:35;14.80;1.40
18392;DHT22;9322;50.932;5.318;2023-03-23T15:41:04;14.70;1.40
18392;DHT22;9322;50.932;5.318;2023-03-23T15:43:33;15.00;1.40
18392;DHT22;9322;50.932;5.318;2023-03-23T15:46:21;14.70;1.40
18392;DHT22;9322;50.932;5.318;2023-03-23T15:51:13;14.70;1.40
18392;DHT22;9322;50.932;5.318;2023-03-23T15:53:39;15.00;1.40
18392;DHT22;9322;50.932;5.318;2023-03-23T15:56:08;15.40;1.40
18392;DHT22;9322;50.932;5.318;2023-03-23T15:58:35;15.60;1.40
18392;DHT22;9322;50.932;5.318;2023-03-23T16:01:04;15.50;1.40
18392;DHT22;9322;50.932;5.318;2023-03-23T16:03:54;15.50;1.40
18392;DHT22;9322;50.932;5.318;2023-03-23T16:06:23;15.50;1.40
18392;DHT22;9322;50.932;5.318;2023-03-23T16:08:49;15.40;1.40
18392;DHT22;9322;50.932;5.318;2023-03-23T16:11:16;15.40;1.40
18392;DHT22;9322;50.932;5.318;2023-03-23T16:13:43;15.40;1.40
18392;DHT22;9322;50.932;5.318;2023-03-23T16:16:23;15.30;1.40
18392;DHT22;9322;50.932;5.318;2023-03-23T16:18:49;15.10;1.40
18392;DHT22;9322;50.932;5.318;2023-03-23T16:21:15;15.00;1.40
18392;DHT22;9322;50.932;5.318;2023-03-23T16:23:41;15.00;1.40
18392;DHT22;9322;50.932;5.318;2023-03-23T16:26:09;15.00;1.40
18392;DHT22;9322;50.932;5.318;2023-03-23T16:28:35;15.30;1.40
18392;DHT22;9322;50.932;5.318;2023-03-23T16:31:01;15.40;1.40
18392;DHT22;9322;50.932;5.318;2023-03-23T16:33:26;15.20;1.40
18392;DHT22;9322;50.932;5.318;2023-03-23T16:35:52;15.20;1.40
18392;DHT22;9322;50.932;5.318;2023-03-23T16:38:18;15.00;1.40
18392;DHT22;9322;50.932;5.318;2023-03-23T16:40:45;15.10;1.40
18392;DHT22;9322;50.932;5.318;2023-03-23T16:43:11;15.10;1.40
18392;DHT22;9322;50.932;5.318;2023-03-23T16:45:39;15.10;1.40
18392;DHT22;9322;50.932;5.318;2023-03-23T16:48:06;15.30;1.40
18392;DHT22;9322;50.932;5.318;2023-03-23T16:50:32;15.30;1.40
18392;DHT22;9322;50.932;5.318;2023-03-23T16:52:58;15.10;1.40
18392;DHT22;9322;50.932;5.318;2023-03-23T16:55:26;14.90;1.40
18392;DHT22;9322;50.932;5.318;2023-03-23T16:57:53;15.00;1.40
18392;DHT22;9322;50.932;5.318;2023-03-23T17:00:19;14.90;1.40
18392;DHT22;9322;50.932;5.318;2023-03-23T17:02:48;15.00;1.40
18392;DHT22;9322;50.932;5.318;2023-03-23T17:05:17;15.00;1.40
18392;DHT22;9322;50.932;5.318;2023-03-23T17:07:44;14.80;1.40
18392;DHT22;9322;50.932;5.318;2023-03-23T17:10:11;14.70;1.40
18392;DHT22;9322;50.932;5.318;2023-03-23T17:12:38;14.70;1.40
18392;DHT22;9322;50.932;5.318;2023-03-23T17:15:04;14.80;1.40
18392;DHT22;9322;50.932;5.318;2023-03-23T17:17:30;14.70;1.40
18392;DHT22;9322;50.932;5.318;2023-03-23T17:19:56;14.80;1.40
18392;DHT22;9322;50.932;5.318;2023-03-23T17:22:22;15.00;1.40
18392;DHT22;9322;50.932;5.318;2023-03-23T17:24:48;15.00;1.40
18392;DHT22;9322;50.932;5.318;2023-03-23T17:27:16;15.00;1.40
18392;DHT22;9322;50.932;5.318;2023-03-23T17:29:42;14.80;1.40
18392;DHT22;9322;50.932;5.318;2023-03-23T17:32:08;14.80;1.40
18392;DHT22;9322;50.932;5.318;2023-03-23T17:34:34;14.80;1.40
18392;DHT22;9322;50.932;5.318;2023-03-23T17:37:00;14.60;1.40
18392;DHT22;9322;50.932;5.318;2023-03-23T17:39:25;14.60;1.40
18392;DHT22;9322;50.932;5.318;2023-03-23T17:41:52;14.50;1.40
18392;DHT22;9322;50.932;5.318;2023-03-23T17:44:18;14.50;1.40
18392;DHT22;9322;50.932;5.318;2023-03-23T17:46:44;14.30;1.40
18392;DHT22;9322;50.932;5.318;2023-03-23T17:49:10;14.30;1.40
18392;DHT22;9322;50.932;5.318;2023-03-23T17:51:35;14.30;1.40
18392;DHT22;9322;50.932;5.318;2023-03-23T17:54:01;14.30;1.40
18392;DHT22;9322;50.932;5.318;2023-03-23T17:56:27;14.30;1.40
18392;DHT22;9322;50.932;5.318;2023-03-23T17:58:53;14.40;1.40
18392;DHT22;9322;50.932;5.318;2023-03-23T18:01:18;14.30;1.40
18392;DHT22;9322;50.932;5.318;2023-03-23T18:03:44;14.20;1.40
18392;DHT22;9322;50.932;5.318;2023-03-23T18:06:10;14.30;1.40
18392;DHT22;9322;50.932;5.318;2023-03-23T18:08:37;14.30;1.40
18392;DHT22;9322;50.932;5.318;2023-03-23T18:11:03;14.20;1.40
18392;DHT22;9322;50.932;5.318;2023-03-23T18:13:30;14.30;1.40
18392;DHT22;9322;50.932;5.318;2023-03-23T18:15:57;14.20;1.40
18392;DHT22;9322;50.932;5.318;2023-03-23T18:18:23;14.20;1.40
18392;DHT22;9322;50.932;5.318;2023-03-23T18:20:58;14.20;1.40